sensor_id;sensor_type;location;lat;lon;timestamp;P1;durP1;ratioP1;P2;durP2;ratioP2
59145;SDS011;44928;53.074;6.646;2023-02-19T00:00:58;22.33;;;10.55;;
59145;SDS011;44928;53.074;6.646;2023-02-19T00:03:28;19.10;;;10.80;;
59145;SDS011;44928;53.074;6.646;2023-02-19T00:05:54;18.92;;;10.05;;
59145;SDS011;44928;53.074;6.646;2023-02-19T00:08:20;18.60;;;10.57;;
59145;SDS011;44928;53.074;6.646;2023-02-19T00:10:45;18.67;;;9.18;;
59145;SDS011;44928;53.074;6.646;2023-02-19T00:13:11;21.15;;;11.13;;
59145;SDS011;44928;53.074;6.646;2023-02-19T00:15:37;21.75;;;11.35;;
59145;SDS011;44928;53.074;6.646;2023-02-19T00:18:03;19.42;;;10.63;;
59145;SDS011;44928;53.074;6.646;2023-02-19T00:20:28;21.13;;;10.15;;
59145;SDS011;44928;53.074;6.646;2023-02-19T00:22:54;23.70;;;10.60;;
59145;SDS011;44928;53.074;6.646;2023-02-19T00:25:20;18.05;;;10.38;;
59145;SDS011;44928;53.074;6.646;2023-02-19T00:27:46;17.65;;;10.80;;
59145;SDS011;44928;53.074;6.646;2023-02-19T00:30:11;20.63;;;10.30;;
59145;SDS011;44928;53.074;6.646;2023-02-19T00:32:37;19.08;;;9.30;;
59145;SDS011;44928;53.074;6.646;2023-02-19T00:35:03;21.65;;;10.48;;
59145;SDS011;44928;53.074;6.646;2023-02-19T00:37:29;22.20;;;10.55;;
59145;SDS011;44928;53.074;6.646;2023-02-19T00:39:55;19.23;;;10.63;;
59145;SDS011;44928;53.074;6.646;2023-02-19T00:42:20;17.88;;;9.73;;
59145;SDS011;44928;53.074;6.646;2023-02-19T00:44:46;17.55;;;10.07;;
59145;SDS011;44928;53.074;6.646;2023-02-19T00:47:12;21.15;;;10.48;;
59145;SDS011;44928;53.074;6.646;2023-02-19T00:49:38;19.92;;;8.50;;
59145;SDS011;44928;53.074;6.646;2023-02-19T00:52:04;15.80;;;8.60;;
59145;SDS011;44928;53.074;6.646;2023-02-19T00:54:30;19.98;;;10.30;;
59145;SDS011;44928;53.074;6.646;2023-02-19T00:56:55;21.80;;;10.23;;
59145;SDS011;44928;53.074;6.646;2023-02-19T00:59:21;23.85;;;10.02;;
59145;SDS011;44928;53.074;6.646;2023-02-19T01:01:47;21.10;;;10.27;;
59145;SDS011;44928;53.074;6.646;2023-02-19T01:04:13;16.70;;;8.32;;
59145;SDS011;44928;53.074;6.646;2023-02-19T01:06:40;18.65;;;9.82;;
59145;SDS011;44928;53.074;6.646;2023-02-19T01:09:06;19.00;;;9.98;;
59145;SDS011;44928;53.074;6.646;2023-02-19T01:11:32;20.58;;;9.45;;
59145;SDS011;44928;53.074;6.646;2023-02-19T01:13:58;19.08;;;9.07;;
59145;SDS011;44928;53.074;6.646;2023-02-19T01:16:25;18.88;;;9.70;;
59145;SDS011;44928;53.074;6.646;2023-02-19T01:18:52;20.55;;;9.50;;
59145;SDS011;44928;53.074;6.646;2023-02-19T01:21:20;18.15;;;9.48;;
59145;SDS011;44928;53.074;6.646;2023-02-19T01:23:48;22.83;;;10.02;;
59145;SDS011;44928;53.074;6.646;2023-02-19T01:26:16;19.58;;;9.40;;
59145;SDS011;44928;53.074;6.646;2023-02-19T01:28:43;18.08;;;9.77;;
59145;SDS011;44928;53.074;6.646;2023-02-19T01:31:11;18.25;;;9.02;;
59145;SDS011;44928;53.074;6.646;2023-02-19T01:33:39;18.15;;;9.15;;
59145;SDS011;44928;53.074;6.646;2023-02-19T01:36:08;20.13;;;8.73;;
59145;SDS011;44928;53.074;6.646;2023-02-19T01:38:33;17.63;;;9.23;;
59145;SDS011;44928;53.074;6.646;2023-02-19T01:41:03;16.92;;;8.10;;
59145;SDS011;44928;53.074;6.646;2023-02-19T01:43:34;15.35;;;8.25;;
59145;SDS011;44928;53.074;6.646;2023-02-19T01:46:19;16.95;;;8.40;;
59145;SDS011;44928;53.074;6.646;2023-02-19T01:48:45;17.63;;;8.63;;
59145;SDS011;44928;53.074;6.646;2023-02-19T01:51:12;15.38;;;7.00;;
59145;SDS011;44928;53.074;6.646;2023-02-19T01:53:42;18.08;;;8.00;;
59145;SDS011;44928;53.074;6.646;2023-02-19T01:56:12;17.05;;;7.85;;
59145;SDS011;44928;53.074;6.646;2023-02-19T01:58:40;17.17;;;7.93;;
59145;SDS011;44928;53.074;6.646;2023-02-19T02:01:06;15.05;;;6.88;;
59145;SDS011;44928;53.074;6.646;2023-02-19T02:03:34;14.27;;;7.30;;
59145;SDS011;44928;53.074;6.646;2023-02-19T02:06:10;13.43;;;6.38;;
59145;SDS011;44928;53.074;6.646;2023-02-19T02:08:50;13.52;;;6.88;;
59145;SDS011;44928;53.074;6.646;2023-02-19T02:11:37;17.48;;;7.80;;
59145;SDS011;44928;53.074;6.646;2023-02-19T02:33:20;4.55;;;1.42;;
59145;SDS011;44928;53.074;6.646;2023-02-19T02:38:34;3.80;;;1.38;;
59145;SDS011;44928;53.074;6.646;2023-02-19T02:41:01;2.75;;;1.23;;
59145;SDS011;44928;53.074;6.646;2023-02-19T02:43:28;4.43;;;1.50;;
59145;SDS011;44928;53.074;6.646;2023-02-19T02:45:54;4.93;;;1.25;;
59145;SDS011;44928;53.074;6.646;2023-02-19T02:48:36;2.58;;;1.05;;
59145;SDS011;44928;53.074;6.646;2023-02-19T02:51:17;3.63;;;1.30;;
59145;SDS011;44928;53.074;6.646;2023-02-19T02:56:48;2.20;;;1.00;;
59145;SDS011;44928;53.074;6.646;2023-02-19T02:59:17;3.08;;;1.10;;
59145;SDS011;44928;53.074;6.646;2023-02-19T03:01:48;3.83;;;1.10;;
59145;SDS011;44928;53.074;6.646;2023-02-19T03:07:38;2.92;;;0.98;;
59145;SDS011;44928;53.074;6.646;2023-02-19T03:10:09;3.88;;;1.00;;
59145;SDS011;44928;53.074;6.646;2023-02-19T03:12:39;3.45;;;1.10;;
59145;SDS011;44928;53.074;6.646;2023-02-19T03:15:28;4.60;;;1.30;;
59145;SDS011;44928;53.074;6.646;2023-02-19T03:18:16;2.80;;;1.10;;
59145;SDS011;44928;53.074;6.646;2023-02-19T03:21:04;3.15;;;1.15;;
59145;SDS011;44928;53.074;6.646;2023-02-19T03:23:33;3.50;;;1.05;;
59145;SDS011;44928;53.074;6.646;2023-02-19T03:26:19;3.45;;;1.10;;
59145;SDS011;44928;53.074;6.646;2023-02-19T03:28:46;3.50;;;1.27;;
59145;SDS011;44928;53.074;6.646;2023-02-19T03:31:33;5.03;;;1.65;;
59145;SDS011;44928;53.074;6.646;2023-02-19T03:34:03;4.22;;;1.40;;
59145;SDS011;44928;53.074;6.646;2023-02-19T03:36:35;5.05;;;1.30;;
59145;SDS011;44928;53.074;6.646;2023-02-19T03:39:08;3.78;;;1.30;;
59145;SDS011;44928;53.074;6.646;2023-02-19T03:44:47;3.28;;;1.23;;
59145;SDS011;44928;53.074;6.646;2023-02-19T03:47:40;3.75;;;1.50;;
59145;SDS011;44928;53.074;6.646;2023-02-19T04:00:30;4.25;;;1.50;;
59145;SDS011;44928;53.074;6.646;2023-02-19T04:03:19;4.20;;;1.50;;
59145;SDS011;44928;53.074;6.646;2023-02-19T04:05:52;4.32;;;1.60;;
59145;SDS011;44928;53.074;6.646;2023-02-19T04:08:25;5.55;;;1.67;;
59145;SDS011;44928;53.074;6.646;2023-02-19T04:10:52;5.07;;;1.75;;
59145;SDS011;44928;53.074;6.646;2023-02-19T04:13:21;5.75;;;1.92;;
59145;SDS011;44928;53.074;6.646;2023-02-19T04:15:55;6.43;;;2.28;;
59145;SDS011;44928;53.074;6.646;2023-02-19T04:18:27;6.70;;;2.40;;
59145;SDS011;44928;53.074;6.646;2023-02-19T04:20:57;6.00;;;2.20;;
59145;SDS011;44928;53.074;6.646;2023-02-19T04:23:23;7.13;;;2.80;;
59145;SDS011;44928;53.074;6.646;2023-02-19T04:28:23;7.00;;;2.47;;
59145;SDS011;44928;53.074;6.646;2023-02-19T04:30:49;6.93;;;2.78;;
59145;SDS011;44928;53.074;6.646;2023-02-19T04:33:16;6.78;;;2.70;;
59145;SDS011;44928;53.074;6.646;2023-02-19T04:35:42;7.78;;;3.10;;
59145;SDS011;44928;53.074;6.646;2023-02-19T04:38:07;8.48;;;3.13;;
59145;SDS011;44928;53.074;6.646;2023-02-19T04:40:33;7.28;;;3.60;;
59145;SDS011;44928;53.074;6.646;2023-02-19T04:42:59;8.32;;;3.85;;
59145;SDS011;44928;53.074;6.646;2023-02-19T04:45:25;8.77;;;4.45;;
59145;SDS011;44928;53.074;6.646;2023-02-19T04:47:50;8.43;;;3.85;;
59145;SDS011;44928;53.074;6.646;2023-02-19T04:50:16;8.75;;;4.07;;
59145;SDS011;44928;53.074;6.646;2023-02-19T04:52:42;8.52;;;3.97;;
59145;SDS011;44928;53.074;6.646;2023-02-19T04:55:08;11.18;;;4.15;;
59145;SDS011;44928;53.074;6.646;2023-02-19T04:57:35;8.50;;;3.35;;
59145;SDS011;44928;53.074;6.646;2023-02-19T05:00:01;8.25;;;3.30;;
59145;SDS011;44928;53.074;6.646;2023-02-19T05:02:28;8.52;;;3.17;;
59145;SDS011;44928;53.074;6.646;2023-02-19T05:04:54;8.07;;;3.70;;
59145;SDS011;44928;53.074;6.646;2023-02-19T05:07:20;8.38;;;3.20;;
59145;SDS011;44928;53.074;6.646;2023-02-19T05:09:45;9.82;;;3.80;;
59145;SDS011;44928;53.074;6.646;2023-02-19T05:12:11;7.70;;;3.42;;
59145;SDS011;44928;53.074;6.646;2023-02-19T05:14:37;7.68;;;3.22;;
59145;SDS011;44928;53.074;6.646;2023-02-19T05:17:03;8.18;;;3.60;;
59145;SDS011;44928;53.074;6.646;2023-02-19T05:19:28;9.13;;;3.85;;
59145;SDS011;44928;53.074;6.646;2023-02-19T05:21:54;10.23;;;4.25;;
59145;SDS011;44928;53.074;6.646;2023-02-19T05:24:20;8.50;;;3.45;;
59145;SDS011;44928;53.074;6.646;2023-02-19T05:26:46;8.73;;;4.18;;
59145;SDS011;44928;53.074;6.646;2023-02-19T05:29:12;8.27;;;3.67;;
59145;SDS011;44928;53.074;6.646;2023-02-19T05:31:38;8.00;;;3.55;;
59145;SDS011;44928;53.074;6.646;2023-02-19T05:34:04;7.05;;;2.88;;
59145;SDS011;44928;53.074;6.646;2023-02-19T05:36:30;7.38;;;2.83;;
59145;SDS011;44928;53.074;6.646;2023-02-19T05:38:56;8.40;;;2.60;;
59145;SDS011;44928;53.074;6.646;2023-02-19T05:41:23;7.30;;;2.17;;
59145;SDS011;44928;53.074;6.646;2023-02-19T05:43:51;5.22;;;2.13;;
59145;SDS011;44928;53.074;6.646;2023-02-19T05:46:18;5.82;;;2.17;;
59145;SDS011;44928;53.074;6.646;2023-02-19T05:48:46;7.18;;;2.10;;
59145;SDS011;44928;53.074;6.646;2023-02-19T05:51:14;6.75;;;2.30;;
59145;SDS011;44928;53.074;6.646;2023-02-19T05:53:41;8.35;;;2.20;;
59145;SDS011;44928;53.074;6.646;2023-02-19T05:56:23;7.57;;;2.50;;
59145;SDS011;44928;53.074;6.646;2023-02-19T05:58:52;6.03;;;2.08;;
59145;SDS011;44928;53.074;6.646;2023-02-19T06:01:19;6.43;;;2.00;;
59145;SDS011;44928;53.074;6.646;2023-02-19T06:03:46;5.25;;;2.17;;
59145;SDS011;44928;53.074;6.646;2023-02-19T06:06:13;5.72;;;1.83;;
59145;SDS011;44928;53.074;6.646;2023-02-19T06:08:39;7.68;;;1.80;;
59145;SDS011;44928;53.074;6.646;2023-02-19T06:11:05;6.15;;;2.05;;
59145;SDS011;44928;53.074;6.646;2023-02-19T06:13:31;5.38;;;1.70;;
59145;SDS011;44928;53.074;6.646;2023-02-19T06:15:56;5.07;;;1.80;;
59145;SDS011;44928;53.074;6.646;2023-02-19T06:18:22;6.50;;;2.25;;
59145;SDS011;44928;53.074;6.646;2023-02-19T06:20:48;5.88;;;2.00;;
59145;SDS011;44928;53.074;6.646;2023-02-19T06:23:14;8.05;;;2.47;;
59145;SDS011;44928;53.074;6.646;2023-02-19T06:25:40;6.75;;;2.45;;
59145;SDS011;44928;53.074;6.646;2023-02-19T06:28:06;6.22;;;2.35;;
59145;SDS011;44928;53.074;6.646;2023-02-19T06:30:34;7.00;;;2.95;;
59145;SDS011;44928;53.074;6.646;2023-02-19T06:33:00;8.50;;;2.42;;
59145;SDS011;44928;53.074;6.646;2023-02-19T06:35:26;7.32;;;2.40;;
59145;SDS011;44928;53.074;6.646;2023-02-19T06:37:51;6.55;;;2.65;;
59145;SDS011;44928;53.074;6.646;2023-02-19T06:40:17;6.65;;;2.63;;
59145;SDS011;44928;53.074;6.646;2023-02-19T06:42:43;6.32;;;2.33;;
59145;SDS011;44928;53.074;6.646;2023-02-19T06:45:09;5.72;;;2.15;;
59145;SDS011;44928;53.074;6.646;2023-02-19T06:47:35;7.30;;;2.55;;
59145;SDS011;44928;53.074;6.646;2023-02-19T06:50:00;6.95;;;2.40;;
59145;SDS011;44928;53.074;6.646;2023-02-19T06:52:26;6.45;;;2.15;;
59145;SDS011;44928;53.074;6.646;2023-02-19T06:54:52;7.65;;;2.50;;
59145;SDS011;44928;53.074;6.646;2023-02-19T06:57:18;7.68;;;2.55;;
59145;SDS011;44928;53.074;6.646;2023-02-19T06:59:44;6.72;;;2.60;;
59145;SDS011;44928;53.074;6.646;2023-02-19T07:02:10;7.72;;;2.70;;
59145;SDS011;44928;53.074;6.646;2023-02-19T07:04:37;6.75;;;2.67;;
59145;SDS011;44928;53.074;6.646;2023-02-19T07:07:03;10.00;;;2.78;;
59145;SDS011;44928;53.074;6.646;2023-02-19T07:09:29;6.60;;;2.30;;
59145;SDS011;44928;53.074;6.646;2023-02-19T07:11:55;7.38;;;2.30;;
59145;SDS011;44928;53.074;6.646;2023-02-19T07:14:20;8.85;;;2.60;;
59145;SDS011;44928;53.074;6.646;2023-02-19T07:16:46;8.65;;;2.40;;
59145;SDS011;44928;53.074;6.646;2023-02-19T07:19:12;9.35;;;2.50;;
59145;SDS011;44928;53.074;6.646;2023-02-19T07:21:39;6.80;;;2.47;;
59145;SDS011;44928;53.074;6.646;2023-02-19T07:24:06;9.73;;;2.60;;
59145;SDS011;44928;53.074;6.646;2023-02-19T07:26:33;7.65;;;2.22;;
59145;SDS011;44928;53.074;6.646;2023-02-19T07:28:59;7.50;;;2.30;;
59145;SDS011;44928;53.074;6.646;2023-02-19T07:31:26;6.65;;;2.05;;
59145;SDS011;44928;53.074;6.646;2023-02-19T07:33:53;6.60;;;2.10;;
59145;SDS011;44928;53.074;6.646;2023-02-19T07:36:19;6.85;;;2.38;;
59145;SDS011;44928;53.074;6.646;2023-02-19T07:38:46;6.07;;;2.10;;
59145;SDS011;44928;53.074;6.646;2023-02-19T07:41:19;6.07;;;1.83;;
59145;SDS011;44928;53.074;6.646;2023-02-19T07:43:45;7.38;;;2.50;;
59145;SDS011;44928;53.074;6.646;2023-02-19T07:46:11;6.05;;;1.88;;
59145;SDS011;44928;53.074;6.646;2023-02-19T07:48:38;6.30;;;1.83;;
59145;SDS011;44928;53.074;6.646;2023-02-19T07:51:06;7.90;;;2.30;;
59145;SDS011;44928;53.074;6.646;2023-02-19T07:53:34;7.40;;;2.55;;
59145;SDS011;44928;53.074;6.646;2023-02-19T07:56:00;7.43;;;2.00;;
59145;SDS011;44928;53.074;6.646;2023-02-19T07:58:27;7.15;;;2.13;;
59145;SDS011;44928;53.074;6.646;2023-02-19T08:00:54;6.90;;;2.13;;
59145;SDS011;44928;53.074;6.646;2023-02-19T08:03:19;9.15;;;2.60;;
59145;SDS011;44928;53.074;6.646;2023-02-19T08:05:45;6.50;;;2.22;;
59145;SDS011;44928;53.074;6.646;2023-02-19T08:08:14;8.70;;;2.67;;
59145;SDS011;44928;53.074;6.646;2023-02-19T08:10:40;6.38;;;2.20;;
59145;SDS011;44928;53.074;6.646;2023-02-19T08:13:26;7.85;;;2.38;;
59145;SDS011;44928;53.074;6.646;2023-02-19T08:18:23;7.25;;;2.30;;
59145;SDS011;44928;53.074;6.646;2023-02-19T08:20:51;9.27;;;2.10;;
59145;SDS011;44928;53.074;6.646;2023-02-19T08:23:18;9.93;;;2.33;;
59145;SDS011;44928;53.074;6.646;2023-02-19T08:25:47;9.45;;;2.13;;
59145;SDS011;44928;53.074;6.646;2023-02-19T08:28:14;8.13;;;2.13;;
59145;SDS011;44928;53.074;6.646;2023-02-19T08:30:41;7.15;;;1.90;;
59145;SDS011;44928;53.074;6.646;2023-02-19T08:33:09;8.40;;;2.22;;
59145;SDS011;44928;53.074;6.646;2023-02-19T08:35:37;8.80;;;2.53;;
59145;SDS011;44928;53.074;6.646;2023-02-19T08:38:04;6.50;;;2.10;;
59145;SDS011;44928;53.074;6.646;2023-02-19T08:40:31;6.47;;;2.00;;
59145;SDS011;44928;53.074;6.646;2023-02-19T08:43:10;7.82;;;2.38;;
59145;SDS011;44928;53.074;6.646;2023-02-19T08:45:38;6.55;;;2.30;;
59145;SDS011;44928;53.074;6.646;2023-02-19T08:48:06;7.30;;;2.20;;
59145;SDS011;44928;53.074;6.646;2023-02-19T08:50:33;8.57;;;2.35;;
59145;SDS011;44928;53.074;6.646;2023-02-19T08:53:00;8.20;;;2.50;;
59145;SDS011;44928;53.074;6.646;2023-02-19T08:55:27;11.75;;;2.58;;
59145;SDS011;44928;53.074;6.646;2023-02-19T08:57:53;7.47;;;2.17;;
59145;SDS011;44928;53.074;6.646;2023-02-19T09:00:19;8.05;;;2.25;;
59145;SDS011;44928;53.074;6.646;2023-02-19T09:02:48;9.25;;;2.30;;
59145;SDS011;44928;53.074;6.646;2023-02-19T09:05:14;8.10;;;2.28;;
59145;SDS011;44928;53.074;6.646;2023-02-19T09:07:41;7.53;;;2.28;;
59145;SDS011;44928;53.074;6.646;2023-02-19T09:10:08;9.82;;;2.45;;
59145;SDS011;44928;53.074;6.646;2023-02-19T09:12:35;10.73;;;3.17;;
59145;SDS011;44928;53.074;6.646;2023-02-19T09:15:02;6.88;;;2.33;;
59145;SDS011;44928;53.074;6.646;2023-02-19T09:17:29;9.15;;;2.30;;
59145;SDS011;44928;53.074;6.646;2023-02-19T09:19:55;8.73;;;2.40;;
59145;SDS011;44928;53.074;6.646;2023-02-19T09:22:20;6.97;;;2.33;;
59145;SDS011;44928;53.074;6.646;2023-02-19T09:24:46;7.32;;;2.22;;
59145;SDS011;44928;53.074;6.646;2023-02-19T09:27:15;6.50;;;2.63;;
59145;SDS011;44928;53.074;6.646;2023-02-19T09:29:42;10.30;;;3.03;;
59145;SDS011;44928;53.074;6.646;2023-02-19T09:32:08;8.77;;;2.60;;
59145;SDS011;44928;53.074;6.646;2023-02-19T09:34:34;9.18;;;2.40;;
59145;SDS011;44928;53.074;6.646;2023-02-19T09:37:00;8.77;;;2.65;;
59145;SDS011;44928;53.074;6.646;2023-02-19T09:39:26;6.53;;;2.20;;
59145;SDS011;44928;53.074;6.646;2023-02-19T09:41:56;8.07;;;2.22;;
59145;SDS011;44928;53.074;6.646;2023-02-19T09:44:29;5.60;;;1.77;;
59145;SDS011;44928;53.074;6.646;2023-02-19T09:46:59;8.48;;;2.00;;
59145;SDS011;44928;53.074;6.646;2023-02-19T09:49:35;7.85;;;2.13;;
59145;SDS011;44928;53.074;6.646;2023-02-19T09:52:14;7.20;;;2.20;;
59145;SDS011;44928;53.074;6.646;2023-02-19T09:54:42;4.55;;;1.52;;
59145;SDS011;44928;53.074;6.646;2023-02-19T09:57:13;5.60;;;1.20;;
59145;SDS011;44928;53.074;6.646;2023-02-19T10:02:22;5.43;;;1.25;;
59145;SDS011;44928;53.074;6.646;2023-02-19T10:04:50;3.78;;;1.00;;
59145;SDS011;44928;53.074;6.646;2023-02-19T10:07:18;6.53;;;1.40;;
59145;SDS011;44928;53.074;6.646;2023-02-19T10:09:52;5.70;;;1.20;;
59145;SDS011;44928;53.074;6.646;2023-02-19T10:12:26;3.55;;;1.10;;
59145;SDS011;44928;53.074;6.646;2023-02-19T10:14:58;5.70;;;0.90;;
59145;SDS011;44928;53.074;6.646;2023-02-19T10:17:33;2.88;;;0.70;;
59145;SDS011;44928;53.074;6.646;2023-02-19T10:20:00;5.35;;;1.20;;
59145;SDS011;44928;53.074;6.646;2023-02-19T10:22:30;3.38;;;1.00;;
59145;SDS011;44928;53.074;6.646;2023-02-19T10:24:57;5.78;;;1.00;;
59145;SDS011;44928;53.074;6.646;2023-02-19T10:27:25;4.00;;;1.08;;
59145;SDS011;44928;53.074;6.646;2023-02-19T10:29:54;3.70;;;1.10;;
59145;SDS011;44928;53.074;6.646;2023-02-19T10:32:21;5.10;;;1.00;;
59145;SDS011;44928;53.074;6.646;2023-02-19T10:35:09;6.20;;;1.08;;
59145;SDS011;44928;53.074;6.646;2023-02-19T10:37:35;3.90;;;0.70;;
59145;SDS011;44928;53.074;6.646;2023-02-19T10:40:32;5.18;;;0.90;;
59145;SDS011;44928;53.074;6.646;2023-02-19T10:43:03;4.07;;;0.80;;
59145;SDS011;44928;53.074;6.646;2023-02-19T10:45:39;5.43;;;0.90;;
59145;SDS011;44928;53.074;6.646;2023-02-19T10:48:21;2.03;;;0.70;;
59145;SDS011;44928;53.074;6.646;2023-02-19T10:50:55;2.63;;;0.80;;
59145;SDS011;44928;53.074;6.646;2023-02-19T10:56:15;3.75;;;0.73;;
59145;SDS011;44928;53.074;6.646;2023-02-19T10:58:48;3.42;;;0.80;;
59145;SDS011;44928;53.074;6.646;2023-02-19T11:03:44;4.25;;;0.85;;
59145;SDS011;44928;53.074;6.646;2023-02-19T11:06:11;3.95;;;0.63;;
59145;SDS011;44928;53.074;6.646;2023-02-19T11:08:51;5.05;;;0.77;;
59145;SDS011;44928;53.074;6.646;2023-02-19T11:11:30;5.63;;;0.90;;
59145;SDS011;44928;53.074;6.646;2023-02-19T11:14:00;4.35;;;0.90;;
59145;SDS011;44928;53.074;6.646;2023-02-19T11:16:43;2.75;;;0.60;;
59145;SDS011;44928;53.074;6.646;2023-02-19T11:22:01;3.63;;;0.68;;
59145;SDS011;44928;53.074;6.646;2023-02-19T11:24:46;6.13;;;1.00;;
59145;SDS011;44928;53.074;6.646;2023-02-19T11:27:17;5.53;;;0.82;;
59145;SDS011;44928;53.074;6.646;2023-02-19T11:29:45;3.15;;;0.60;;
59145;SDS011;44928;53.074;6.646;2023-02-19T11:34:48;5.50;;;0.98;;
59145;SDS011;44928;53.074;6.646;2023-02-19T11:37:18;2.60;;;0.60;;
59145;SDS011;44928;53.074;6.646;2023-02-19T11:39:51;6.80;;;0.90;;
59145;SDS011;44928;53.074;6.646;2023-02-19T11:42:31;4.80;;;0.65;;
59145;SDS011;44928;53.074;6.646;2023-02-19T11:45:24;6.50;;;0.90;;
59145;SDS011;44928;53.074;6.646;2023-02-19T11:53:30;4.93;;;0.90;;
59145;SDS011;44928;53.074;6.646;2023-02-19T12:02:11;2.00;;;0.47;;
59145;SDS011;44928;53.074;6.646;2023-02-19T12:25:37;4.78;;;1.00;;
59145;SDS011;44928;53.074;6.646;2023-02-19T12:37:06;2.20;;;0.60;;
59145;SDS011;44928;53.074;6.646;2023-02-19T12:44:53;6.47;;;1.90;;
59145;SDS011;44928;53.074;6.646;2023-02-19T12:47:23;5.95;;;0.70;;
59145;SDS011;44928;53.074;6.646;2023-02-19T12:50:08;2.63;;;0.60;;
59145;SDS011;44928;53.074;6.646;2023-02-19T12:52:51;2.83;;;0.88;;
59145;SDS011;44928;53.074;6.646;2023-02-19T12:55:33;5.95;;;1.08;;
59145;SDS011;44928;53.074;6.646;2023-02-19T12:58:04;21.33;;;9.75;;
59145;SDS011;44928;53.074;6.646;2023-02-19T13:00:40;17.05;;;7.28;;
59145;SDS011;44928;53.074;6.646;2023-02-19T13:03:17;4.25;;;1.27;;
59145;SDS011;44928;53.074;6.646;2023-02-19T13:05:49;15.10;;;6.18;;
59145;SDS011;44928;53.074;6.646;2023-02-19T13:08:30;7.18;;;1.50;;
59145;SDS011;44928;53.074;6.646;2023-02-19T13:11:18;24.98;;;16.83;;
59145;SDS011;44928;53.074;6.646;2023-02-19T13:16:36;6.30;;;1.73;;
59145;SDS011;44928;53.074;6.646;2023-02-19T13:19:07;6.60;;;1.73;;
59145;SDS011;44928;53.074;6.646;2023-02-19T13:21:35;5.30;;;0.85;;
59145;SDS011;44928;53.074;6.646;2023-02-19T13:24:28;6.40;;;1.00;;
59145;SDS011;44928;53.074;6.646;2023-02-19T13:37:41;5.47;;;1.15;;
59145;SDS011;44928;53.074;6.646;2023-02-19T13:40:19;5.22;;;1.20;;
59145;SDS011;44928;53.074;6.646;2023-02-19T13:43:01;3.47;;;0.90;;
59145;SDS011;44928;53.074;6.646;2023-02-19T13:48:24;3.80;;;0.88;;
59145;SDS011;44928;53.074;6.646;2023-02-19T14:14:42;4.28;;;0.77;;
59145;SDS011;44928;53.074;6.646;2023-02-19T14:27:48;6.82;;;0.82;;
59145;SDS011;44928;53.074;6.646;2023-02-19T14:30:17;5.78;;;0.88;;
59145;SDS011;44928;53.074;6.646;2023-02-19T14:32:54;5.80;;;0.77;;
59145;SDS011;44928;53.074;6.646;2023-02-19T14:35:29;6.55;;;0.80;;
59145;SDS011;44928;53.074;6.646;2023-02-19T14:37:59;4.35;;;0.60;;
59145;SDS011;44928;53.074;6.646;2023-02-19T14:40:37;6.35;;;1.02;;
59145;SDS011;44928;53.074;6.646;2023-02-19T14:43:08;6.20;;;1.08;;
59145;SDS011;44928;53.074;6.646;2023-02-19T14:45:40;6.25;;;0.98;;
59145;SDS011;44928;53.074;6.646;2023-02-19T14:48:16;5.25;;;0.93;;
59145;SDS011;44928;53.074;6.646;2023-02-19T14:50:46;9.65;;;2.72;;
59145;SDS011;44928;53.074;6.646;2023-02-19T14:53:15;5.22;;;1.50;;
59145;SDS011;44928;53.074;6.646;2023-02-19T14:55:45;5.65;;;1.20;;
59145;SDS011;44928;53.074;6.646;2023-02-19T14:58:13;6.05;;;1.27;;
59145;SDS011;44928;53.074;6.646;2023-02-19T15:00:46;7.05;;;1.33;;
59145;SDS011;44928;53.074;6.646;2023-02-19T15:03:23;6.78;;;1.60;;
59145;SDS011;44928;53.074;6.646;2023-02-19T15:05:53;6.70;;;0.95;;
59145;SDS011;44928;53.074;6.646;2023-02-19T15:08:48;5.30;;;1.02;;
59145;SDS011;44928;53.074;6.646;2023-02-19T15:11:25;6.20;;;1.05;;
59145;SDS011;44928;53.074;6.646;2023-02-19T15:13:54;7.90;;;1.20;;
59145;SDS011;44928;53.074;6.646;2023-02-19T15:16:28;4.30;;;1.13;;
59145;SDS011;44928;53.074;6.646;2023-02-19T15:18:57;6.68;;;1.00;;
59145;SDS011;44928;53.074;6.646;2023-02-19T15:21:25;6.68;;;1.00;;
59145;SDS011;44928;53.074;6.646;2023-02-19T15:23:54;8.45;;;1.38;;
59145;SDS011;44928;53.074;6.646;2023-02-19T15:26:33;4.07;;;0.80;;
59145;SDS011;44928;53.074;6.646;2023-02-19T15:29:02;9.52;;;1.63;;
59145;SDS011;44928;53.074;6.646;2023-02-19T15:31:34;4.65;;;1.27;;
59145;SDS011;44928;53.074;6.646;2023-02-19T15:34:00;11.93;;;2.35;;
59145;SDS011;44928;53.074;6.646;2023-02-19T15:36:29;13.02;;;2.30;;
59145;SDS011;44928;53.074;6.646;2023-02-19T15:39:01;10.48;;;2.10;;
59145;SDS011;44928;53.074;6.646;2023-02-19T15:41:28;9.20;;;2.30;;
59145;SDS011;44928;53.074;6.646;2023-02-19T15:44:41;8.23;;;1.60;;
59145;SDS011;44928;53.074;6.646;2023-02-19T15:46:53;10.27;;;4.07;;
59145;SDS011;44928;53.074;6.646;2023-02-19T15:49:22;10.07;;;2.58;;
59145;SDS011;44928;53.074;6.646;2023-02-19T15:52:02;8.35;;;2.03;;
59145;SDS011;44928;53.074;6.646;2023-02-19T15:54:34;15.98;;;4.55;;
59145;SDS011;44928;53.074;6.646;2023-02-19T15:57:07;45.40;;;14.73;;
59145;SDS011;44928;53.074;6.646;2023-02-19T15:59:42;16.85;;;6.20;;
59145;SDS011;44928;53.074;6.646;2023-02-19T16:02:15;17.95;;;7.53;;
59145;SDS011;44928;53.074;6.646;2023-02-19T16:04:41;10.25;;;2.60;;
59145;SDS011;44928;53.074;6.646;2023-02-19T16:10:03;9.43;;;2.35;;
59145;SDS011;44928;53.074;6.646;2023-02-19T16:12:31;9.65;;;2.53;;
59145;SDS011;44928;53.074;6.646;2023-02-19T16:14:57;12.10;;;3.20;;
59145;SDS011;44928;53.074;6.646;2023-02-19T16:17:22;7.40;;;1.63;;
59145;SDS011;44928;53.074;6.646;2023-02-19T16:19:58;9.95;;;2.80;;
59145;SDS011;44928;53.074;6.646;2023-02-19T16:22:26;6.30;;;1.80;;
59145;SDS011;44928;53.074;6.646;2023-02-19T16:24:55;6.15;;;1.65;;
59145;SDS011;44928;53.074;6.646;2023-02-19T16:29:51;11.60;;;5.05;;
59145;SDS011;44928;53.074;6.646;2023-02-19T16:32:17;13.95;;;3.90;;
59145;SDS011;44928;53.074;6.646;2023-02-19T16:34:45;17.83;;;5.95;;
59145;SDS011;44928;53.074;6.646;2023-02-19T16:42:50;8.85;;;2.50;;
59145;SDS011;44928;53.074;6.646;2023-02-19T16:45:28;7.32;;;1.80;;
59145;SDS011;44928;53.074;6.646;2023-02-19T16:47:54;7.68;;;1.45;;
59145;SDS011;44928;53.074;6.646;2023-02-19T16:50:22;7.68;;;1.92;;
59145;SDS011;44928;53.074;6.646;2023-02-19T16:52:57;8.35;;;1.50;;
59145;SDS011;44928;53.074;6.646;2023-02-19T16:55:25;6.00;;;1.25;;
59145;SDS011;44928;53.074;6.646;2023-02-19T16:57:52;8.50;;;1.30;;
59145;SDS011;44928;53.074;6.646;2023-02-19T17:00:20;8.88;;;1.60;;
59145;SDS011;44928;53.074;6.646;2023-02-19T17:02:58;5.60;;;1.20;;
59145;SDS011;44928;53.074;6.646;2023-02-19T17:05:33;5.80;;;1.20;;
59145;SDS011;44928;53.074;6.646;2023-02-19T17:08:06;8.60;;;1.77;;
59145;SDS011;44928;53.074;6.646;2023-02-19T17:10:49;7.88;;;1.52;;
59145;SDS011;44928;53.074;6.646;2023-02-19T17:13:15;8.88;;;1.40;;
59145;SDS011;44928;53.074;6.646;2023-02-19T17:15:41;5.88;;;1.30;;
59145;SDS011;44928;53.074;6.646;2023-02-19T17:18:07;8.38;;;1.33;;
59145;SDS011;44928;53.074;6.646;2023-02-19T17:20:35;8.45;;;1.67;;
59145;SDS011;44928;53.074;6.646;2023-02-19T17:23:01;6.78;;;1.30;;
59145;SDS011;44928;53.074;6.646;2023-02-19T17:25:26;5.40;;;1.27;;
59145;SDS011;44928;53.074;6.646;2023-02-19T17:27:52;10.38;;;1.80;;
59145;SDS011;44928;53.074;6.646;2023-02-19T17:30:28;9.77;;;1.65;;
59145;SDS011;44928;53.074;6.646;2023-02-19T17:32:55;4.70;;;1.00;;
59145;SDS011;44928;53.074;6.646;2023-02-19T17:35:21;7.07;;;1.42;;
59145;SDS011;44928;53.074;6.646;2023-02-19T17:37:47;9.85;;;1.75;;
59145;SDS011;44928;53.074;6.646;2023-02-19T17:40:29;4.97;;;1.30;;
59145;SDS011;44928;53.074;6.646;2023-02-19T17:42:55;8.18;;;1.80;;
59145;SDS011;44928;53.074;6.646;2023-02-19T17:45:21;7.70;;;1.42;;
59145;SDS011;44928;53.074;6.646;2023-02-19T17:47:48;8.10;;;1.85;;